Time;durP1;ratioP1;P1;durP2;ratioP2;P2;SDS_P1;SDS_P2;PMS_P1;PMS_P2;Temp;Humidity;BMP_temperature;BMP_pressure;BME280_temperature;BME280_humidity;BME280_pressure;Samples;Min_cycle;Max_cycle;Signal;HPM_P1;HPM_P2
2023/09/14 18:00:33;;;;;;;9.25;3.30;;;;;;;;;;5105895;27;20249;-65
2023/09/14 18:03:00;;;;;;;8.02;3.25;;;;;;;;;;5099964;28;20040;-68
2023/09/14 18:05:27;;;;;;;4.47;2.38;;;;;;;;;;5101403;28;20035;-66
2023/09/14 18:07:53;;;;;;;9.85;2.72;;;;;;;;;;5101920;28;20032;-64
2023/09/14 18:10:20;;;;;;;8.45;2.58;;;;;;;;;;5101880;28;20131;-67
2023/09/14 18:12:47;;;;;;;6.25;4.22;;;;;;;;;;5101747;28;20055;-68
2023/09/14 18:15:13;;;;;;;18.38;6.53;;;;;;;;;;5100167;28;20046;-68
2023/09/14 18:17:40;;;;;;;7.05;2.85;;;;;;;;;;5099770;28;20043;-69
2023/09/14 18:20:08;;;;;;;8.65;4.13;;;;;;;;;;5100391;28;20051;-68
2023/09/14 18:22:37;;;;;;;12.32;4.75;;;;;;;;;;5101527;28;20075;-70
2023/09/14 18:25:05;;;;;;;7.55;3.60;;;;;;;;;;5100804;28;20127;-66
2023/09/14 18:27:35;;;;;;;16.55;8.65;;;;;;;;;;5098241;28;20124;-67
2023/09/14 18:30:03;;;;;;;7.10;3.35;;;;;;;;;;5100566;28;20046;-67
2023/09/14 18:32:32;;;;;;;9.77;3.78;;;;;;;;;;5101883;28;20050;-67
2023/09/14 18:34:59;;;;;;;8.10;3.45;;;;;;;;;;5099133;28;20036;-67
2023/09/14 18:37:25;;;;;;;6.68;3.17;;;;;;;;;;5100389;28;20044;-66
2023/09/14 18:39:52;;;;;;;5.65;2.92;;;;;;;;;;5101080;28;20310;-67
2023/09/14 18:42:18;;;;;;;7.80;3.40;;;;;;;;;;5099882;28;20046;-66
2023/09/14 18:44:45;;;;;;;6.90;2.85;;;;;;;;;;5100340;28;20094;-67
2023/09/14 18:47:11;;;;;;;6.80;2.85;;;;;;;;;;5101024;28;20130;-66
2023/09/14 18:49:38;;;;;;;7.00;2.92;;;;;;;;;;5100567;28;20539;-67
2023/09/14 18:52:05;;;;;;;5.15;3.28;;;;;;;;;;5101762;28;20089;-67
2023/09/14 18:54:31;;;;;;;5.57;2.83;;;;;;;;;;5101095;28;20040;-66
2023/09/14 18:57:00;;;;;;;7.90;3.67;;;;;;;;;;5100832;28;20040;-67
2023/09/14 18:59:27;;;;;;;7.18;3.75;;;;;;;;;;5101052;28;20040;-67
2023/09/14 19:01:59;;;;;;;7.60;3.80;;;;;;;;;;5100391;28;20036;-66
2023/09/14 19:04:26;;;;;;;5.65;2.55;;;;;;;;;;5101425;28;20044;-66
2023/09/14 19:06:56;;;;;;;6.75;3.03;;;;;;;;;;5098368;28;20048;-66
2023/09/14 19:09:24;;;;;;;8.93;3.25;;;;;;;;;;5101298;28;20050;-66
2023/09/14 19:11:51;;;;;;;13.70;4.43;;;;;;;;;;5086992;28;20447;-66
2023/09/14 19:14:17;;;;;;;5.32;3.28;;;;;;;;;;5087324;28;20052;-67
2023/09/14 19:16:43;;;;;;;12.93;4.70;;;;;;;;;;5087006;28;20040;-66
2023/09/14 19:19:13;;;;;;;9.57;3.53;;;;;;;;;;5085027;28;20120;-66
2023/09/14 19:21:41;;;;;;;9.90;3.25;;;;;;;;;;5086773;28;20048;-65
2023/09/14 19:24:07;;;;;;;6.43;3.28;;;;;;;;;;5086769;28;20035;-67
2023/09/14 19:26:34;;;;;;;5.60;3.42;;;;;;;;;;5086539;28;20055;-66
2023/09/14 19:29:00;;;;;;;8.77;3.67;;;;;;;;;;5087026;28;20040;-68
2023/09/14 19:31:27;;;;;;;6.40;3.55;;;;;;;;;;5085168;28;20075;-69
2023/09/14 19:33:53;;;;;;;6.85;3.20;;;;;;;;;;5086264;28;20106;-67
2023/09/14 19:36:23;;;;;;;7.35;3.42;;;;;;;;;;5086275;28;20036;-66
2023/09/14 19:38:49;;;;;;;12.38;4.18;;;;;;;;;;5087651;28;20068;-67
2023/09/14 19:41:16;;;;;;;6.53;3.60;;;;;;;;;;5085877;28;20052;-68
2023/09/14 19:43:43;;;;;;;14.65;4.63;;;;;;;;;;5085277;28;20051;-68
2023/09/14 19:46:10;;;;;;;12.10;3.25;;;;;;;;;;5085857;28;20036;-69
2023/09/14 19:48:43;;;;;;;9.10;4.30;;;;;;;;;;5088745;28;20056;-67
2023/09/14 19:51:13;;;;;;;8.57;3.28;;;;;;;;;;5084903;28;20074;-67
2023/09/14 19:53:42;;;;;;;5.65;3.35;;;;;;;;;;5084807;28;20717;-69
2023/09/14 19:56:08;;;;;;;7.43;3.75;;;;;;;;;;5085146;28;20132;-68
2023/09/14 19:58:36;;;;;;;7.47;3.42;;;;;;;;;;5086238;28;20135;-72
2023/09/14 20:01:06;;;;;;;6.63;3.75;;;;;;;;;;5085476;28;20097;-71
2023/09/14 20:03:33;;;;;;;11.50;3.83;;;;;;;;;;5085918;28;20047;-72
2023/09/14 20:06:00;;;;;;;10.48;4.32;;;;;;;;;;5085526;28;20047;-71
2023/09/14 20:08:28;;;;;;;8.02;3.15;;;;;;;;;;5086319;28;20101;-75
2023/09/14 20:10:56;;;;;;;7.80;2.85;;;;;;;;;;5085815;28;20079;-70
2023/09/14 20:13:22;;;;;;;10.13;4.40;;;;;;;;;;5085984;28;20127;-72
2023/09/14 20:15:49;;;;;;;4.50;2.88;;;;;;;;;;5085615;28;20127;-70
2023/09/14 20:18:15;;;;;;;6.53;3.30;;;;;;;;;;5085908;28;20044;-71
2023/09/14 20:20:41;;;;;;;9.18;3.78;;;;;;;;;;5085815;28;20143;-72
2023/09/14 20:23:09;;;;;;;7.55;2.90;;;;;;;;;;5084711;28;20036;-73
2023/09/14 20:25:38;;;;;;;8.25;4.00;;;;;;;;;;5085286;28;20484;-72
2023/09/14 20:28:05;;;;;;;7.80;4.07;;;;;;;;;;5085112;28;20098;-72
2023/09/14 20:30:32;;;;;;;5.10;3.20;;;;;;;;;;5085293;28;21303;-71
2023/09/14 20:32:58;;;;;;;8.38;3.67;;;;;;;;;;5085752;28;20040;-73
2023/09/14 20:35:26;;;;;;;8.57;3.05;;;;;;;;;;5085670;28;20047;-71
2023/09/14 20:37:52;;;;;;;9.25;3.33;;;;;;;;;;5084915;28;20047;-72
2023/09/14 20:40:20;;;;;;;9.15;4.03;;;;;;;;;;5084894;28;20134;-71
2023/09/14 20:42:53;;;;;;;7.25;3.47;;;;;;;;;;5085535;28;20040;-73
2023/09/14 20:45:19;;;;;;;10.70;4.20;;;;;;;;;;5085260;28;20150;-70
2023/09/14 20:47:46;;;;;;;7.85;3.67;;;;;;;;;;5086502;28;20528;-69
2023/09/14 20:50:13;;;;;;;5.90;3.50;;;;;;;;;;5089659;28;20046;-68
2023/09/14 20:52:40;;;;;;;6.07;3.03;;;;;;;;;;5089933;28;20496;-64
2023/09/14 20:55:08;;;;;;;5.80;3.35;;;;;;;;;;5085599;28;20127;-64
2023/09/14 20:57:37;;;;;;;7.32;3.55;;;;;;;;;;5087775;28;20044;-64
2023/09/14 21:00:09;;;;;;;6.35;3.35;;;;;;;;;;5087937;28;20490;-64
2023/09/14 21:02:36;;;;;;;9.18;3.58;;;;;;;;;;5089729;28;20115;-64
2023/09/14 21:05:03;;;;;;;5.90;3.58;;;;;;;;;;5089580;28;20071;-64
2023/09/14 21:07:30;;;;;;;6.28;3.10;;;;;;;;;;5089774;28;20397;-64
2023/09/14 21:09:56;;;;;;;6.13;3.38;;;;;;;;;;5089187;28;20568;-64
2023/09/14 21:12:23;;;;;;;7.10;4.20;;;;;;;;;;5089651;28;20044;-65
2023/09/14 21:14:49;;;;;;;7.47;2.85;;;;;;;;;;5090144;28;20658;-65
2023/09/14 21:17:16;;;;;;;8.23;2.78;;;;;;;;;;5089323;28;20040;-64
2023/09/14 21:19:54;;;;;;;8.50;3.28;;;;;;;;;;5089386;28;20036;-65
2023/09/14 21:22:23;;;;;;;8.13;3.92;;;;;;;;;;5087426;28;20076;-64
2023/09/14 21:24:50;;;;;;;5.50;2.95;;;;;;;;;;5088907;28;20605;-65
2023/09/14 21:27:18;;;;;;;7.20;3.42;;;;;;;;;;5089641;28;20044;-64
2023/09/14 21:29:48;;;;;;;5.32;2.47;;;;;;;;;;5089001;28;20181;-65
2023/09/14 21:32:15;;;;;;;9.05;2.78;;;;;;;;;;5089363;28;20071;-65
2023/09/14 21:34:41;;;;;;;4.28;2.33;;;;;;;;;;5088620;28;20036;-64
2023/09/14 21:37:09;;;;;;;5.65;2.72;;;;;;;;;;5089364;28;20040;-64
2023/09/14 21:39:35;;;;;;;10.45;5.32;;;;;;;;;;5085378;28;20050;-64
2023/09/14 21:42:02;;;;;;;76.80;40.55;;;;;;;;;;5087752;28;20055;-67
2023/09/14 21:44:29;;;;;;;39.92;19.17;;;;;;;;;;5089080;28;20507;-66
2023/09/14 21:46:57;;;;;;;86.10;48.55;;;;;;;;;;5085460;28;20113;-66
2023/09/14 21:49:34;;;;;;;68.75;40.25;;;;;;;;;;5086669;28;20051;-63
2023/09/14 21:52:06;;;;;;;95.85;51.90;;;;;;;;;;5087545;28;20036;-65
2023/09/14 21:54:35;;;;;;;8.50;4.00;;;;;;;;;;5087334;28;20484;-65
2023/09/14 21:57:05;;;;;;;7.68;2.53;;;;;;;;;;5080693;28;20040;-64
2023/09/14 21:59:33;;;;;;;4.60;2.37;;;;;;;;;;5087223;28;20050;-65
2023/09/14 22:02:01;;;;;;;5.03;2.65;;;;;;;;;;5087220;28;20457;-64
2023/09/14 22:04:27;;;;;;;8.27;3.30;;;;;;;;;;5087821;28;20036;-64
2023/09/14 22:06:54;;;;;;;6.90;3.03;;;;;;;;;;5091971;28;20040;-65
2023/09/14 22:09:21;;;;;;;6.53;3.10;;;;;;;;;;5089222;28;20082;-65
2023/09/14 22:11:47;;;;;;;5.60;2.55;;;;;;;;;;5088214;28;20067;-64
2023/09/14 22:14:14;;;;;;;6.95;2.88;;;;;;;;;;5089276;28;20082;-64
2023/09/14 22:16:43;;;;;;;5.50;2.70;;;;;;;;;;5088790;28;20044;-64
2023/09/14 22:19:10;;;;;;;10.82;3.42;;;;;;;;;;5089719;28;20050;-65
2023/09/14 22:21:37;;;;;;;9.50;3.17;;;;;;;;;;5090151;28;20051;-64
2023/09/14 22:24:04;;;;;;;6.38;2.70;;;;;;;;;;5089090;28;20044;-64
2023/09/14 22:26:31;;;;;;;5.22;3.25;;;;;;;;;;5088492;28;20425;-64
2023/09/14 22:28:57;;;;;;;8.95;3.10;;;;;;;;;;5089099;28;20563;-63
2023/09/14 22:31:25;;;;;;;5.55;2.60;;;;;;;;;;5088371;28;20040;-64
2023/09/14 22:33:54;;;;;;;4.32;2.90;;;;;;;;;;5088430;28;20089;-64
2023/09/14 22:36:21;;;;;;;6.20;2.90;;;;;;;;;;5088088;28;20047;-64
2023/09/14 22:38:48;;;;;;;7.75;3.05;;;;;;;;;;5089402;28;20571;-65
2023/09/14 22:41:15;;;;;;;6.68;3.03;;;;;;;;;;5089631;28;20043;-64
2023/09/14 22:43:41;;;;;;;5.95;2.67;;;;;;;;;;5089184;28;20046;-65
2023/09/14 22:46:11;;;;;;;6.32;3.42;;;;;;;;;;5093777;28;20123;-68
2023/09/14 22:48:38;;;;;;;6.65;3.25;;;;;;;;;;5092612;28;20530;-64
2023/09/14 22:51:05;;;;;;;5.20;2.88;;;;;;;;;;5092592;28;20151;-64
2023/09/14 22:53:37;;;;;;;9.30;3.63;;;;;;;;;;5091972;28;20093;-64
2023/09/14 22:56:05;;;;;;;6.13;2.83;;;;;;;;;;5091835;28;20548;-64
2023/09/14 22:58:31;;;;;;;16.73;3.55;;;;;;;;;;5091988;28;20112;-64
2023/09/14 23:00:58;;;;;;;5.25;3.17;;;;;;;;;;5092054;28;20040;-65
2023/09/14 23:03:24;;;;;;;6.20;3.38;;;;;;;;;;5100620;28;20093;-63
2023/09/14 23:05:51;;;;;;;7.43;3.60;;;;;;;;;;5092695;28;20044;-64
2023/09/14 23:08:17;;;;;;;5.97;3.85;;;;;;;;;;5096848;28;20601;-64
2023/09/14 23:10:44;;;;;;;9.02;3.30;;;;;;;;;;5092031;28;20620;-64
2023/09/14 23:13:10;;;;;;;7.80;3.70;;;;;;;;;;5093156;28;20513;-64
2023/09/14 23:15:38;;;;;;;5.45;2.92;;;;;;;;;;5091786;28;20040;-64
2023/09/14 23:18:05;;;;;;;9.85;3.58;;;;;;;;;;5085201;28;20043;-65
2023/09/14 23:20:31;;;;;;;6.03;3.80;;;;;;;;;;5091507;28;20056;-64
2023/09/14 23:22:58;;;;;;;6.53;2.80;;;;;;;;;;5091461;28;20048;-63
2023/09/14 23:25:25;;;;;;;6.40;2.85;;;;;;;;;;5090993;28;20040;-64
2023/09/14 23:27:52;;;;;;;5.50;3.08;;;;;;;;;;5091006;28;20032;-65
2023/09/14 23:30:20;;;;;;;5.30;2.97;;;;;;;;;;5091689;28;20051;-64
2023/09/14 23:32:48;;;;;;;6.60;3.67;;;;;;;;;;5091502;28;20040;-64
2023/09/14 23:35:23;;;;;;;6.82;3.25;;;;;;;;;;5089580;28;20128;-68
2023/09/14 23:37:50;;;;;;;5.18;3.10;;;;;;;;;;5094145;28;20040;-66
2023/09/14 23:40:34;;;;;;;8.90;3.10;;;;;;;;;;5091949;28;20031;-64
2023/09/14 23:43:01;;;;;;;9.63;4.00;;;;;;;;;;5090252;28;20079;-65
2023/09/14 23:45:28;;;;;;;7.72;3.13;;;;;;;;;;5090612;28;20671;-65
2023/09/14 23:47:55;;;;;;;7.80;3.13;;;;;;;;;;5091322;28;20052;-65
2023/09/14 23:50:22;;;;;;;10.23;3.72;;;;;;;;;;5090794;28;20040;-65
2023/09/14 23:52:50;;;;;;;6.07;3.28;;;;;;;;;;5091316;28;20044;-65
2023/09/14 23:55:17;;;;;;;6.93;4.32;;;;;;;;;;5091350;28;20040;-65
2023/09/14 23:57:44;;;;;;;8.98;3.58;;;;;;;;;;5091060;28;20062;-65
